Time;durP1;ratioP1;P1;durP2;ratioP2;P2;SDS_P1;SDS_P2;PMS_P1;PMS_P2;Temp;Humidity;BMP_temperature;BMP_pressure;BME280_temperature;BME280_humidity;BME280_pressure;Samples;Min_cycle;Max_cycle;Signal;HPM_P1;HPM_P2
2022/10/26 00:01:26;;;;;;;24.07;9.70;;;;;;;-141.97;51.88;47503.69;4993787;28;20198;-81
2022/10/26 00:03:54;;;;;;;39.40;17.80;;;;;;;-141.97;51.86;47547.91;4975781;28;20184;-82
2022/10/26 00:06:24;;;;;;;72.33;29.97;;;;;;;-141.97;51.96;47553.69;4993496;28;20172;-82
2022/10/26 00:08:50;;;;;;;68.13;28.70;;;;;;;-141.97;52.16;47701.69;4993730;28;20184;-83
2022/10/26 00:11:17;;;;;;;74.13;29.60;;;;;;;-141.97;51.87;47674.78;4993435;28;20171;-82
2022/10/26 00:13:43;;;;;;;133.10;58.53;;;;;;;-141.97;52.03;47534.44;4993321;28;20183;-83
2022/10/26 00:16:16;;;;;;;52.43;23.47;;;;;;;-141.97;51.93;47546.00;4993613;28;20180;-82
2022/10/26 00:18:43;;;;;;;61.73;32.57;;;;;;;-141.97;52.35;47403.75;4993222;28;20191;-83
2022/10/26 00:21:09;;;;;;;43.73;20.90;;;;;;;-141.97;52.41;47530.59;4993373;28;20195;-82
2022/10/26 00:23:35;;;;;;;43.40;19.60;;;;;;;-141.97;52.27;47565.22;4975611;28;20246;-82
2022/10/26 00:26:01;;;;;;;26.57;12.03;;;;;;;-141.97;52.98;47534.44;4993177;28;20168;-83
2022/10/26 00:28:26;;;;;;;23.00;9.30;;;;;;;-141.97;53.41;47530.59;4992960;28;20687;-82
2022/10/26 00:30:52;;;;;;;23.67;8.90;;;;;;;-141.97;53.75;47569.06;4992939;28;20703;-82
2022/10/26 00:33:18;;;;;;;24.70;8.40;;;;;;;-141.97;53.76;47534.44;4992843;28;20176;-82
2022/10/26 00:35:46;;;;;;;23.77;8.50;;;;;;;-141.97;53.87;47463.34;4992865;28;20176;-82
2022/10/26 00:38:12;;;;;;;18.40;7.60;;;;;;;-141.97;54.71;47553.69;4994197;28;20175;-82
2022/10/26 00:40:38;;;;;;;18.97;7.07;;;;;;;-141.97;55.32;47584.44;5003682;28;20203;-83
2022/10/26 00:43:09;;;;;;;20.70;7.27;;;;;;;-141.97;55.39;47569.06;5019366;28;20160;-84
2022/10/26 00:45:34;;;;;;;19.47;7.37;;;;;;;-141.97;55.61;47607.50;4997674;28;20175;-83
2022/10/26 00:48:06;;;;;;;18.13;7.10;;;;;;;-141.97;55.17;47569.06;4996564;28;20203;-83
2022/10/26 00:50:35;;;;;;;23.73;8.47;;;;;;;-141.97;55.17;47578.66;4996160;28;20266;-82
2022/10/26 00:53:03;;;;;;;22.80;8.67;;;;;;;-141.97;55.46;47492.16;4996081;28;20176;-83
2022/10/26 00:55:33;;;;;;;25.27;10.60;;;;;;;-141.97;55.08;47684.38;4996250;28;20183;-83
2022/10/26 00:58:02;;;;;;;25.93;9.60;;;;;;;-141.97;55.23;47522.91;4996096;28;20599;-82
2022/10/26 01:00:27;;;;;;;22.10;7.57;;;;;;;-141.97;55.03;47544.06;4996053;28;20176;-83
2022/10/26 01:02:56;;;;;;;21.27;6.20;;;;;;;-141.97;54.51;47615.19;4996065;28;20666;-82
2022/10/26 01:05:23;;;;;;;16.20;5.80;;;;;;;-141.97;53.28;47544.06;4996006;28;20179;-83
2022/10/26 01:07:50;;;;;;;17.07;6.90;;;;;;;-141.97;53.24;47569.06;4996033;28;20211;-83
2022/10/26 01:10:17;;;;;;;21.57;6.73;;;;;;;-141.97;53.07;47653.63;4996018;28;20190;-83
2022/10/26 01:12:43;;;;;;;16.30;6.10;;;;;;;-141.97;53.36;47403.75;4996106;28;20191;-82
2022/10/26 01:15:09;;;;;;;15.37;6.53;;;;;;;-141.97;52.90;47561.38;4995954;28;20215;-82
2022/10/26 01:17:46;;;;;;;16.47;6.80;;;;;;;-141.97;52.31;47567.13;4996087;28;20180;-83
2022/10/26 01:20:53;;;;;;;14.80;6.73;;;;;;;-141.97;51.73;47572.91;4996079;28;20171;-82
2022/10/26 01:23:24;;;;;;;13.67;6.27;;;;;;;-141.97;51.30;47547.91;4898854;29;20222;-83
2022/10/26 01:26:24;;;;;;;16.17;6.40;;;;;;;-141.97;50.74;47559.44;4901923;29;20179;-83
2022/10/26 01:29:04;;;;;;;17.53;6.73;;;;;;;-141.97;51.04;47567.13;4917503;29;20187;-83
2022/10/26 01:31:38;;;;;;;17.50;6.17;;;;;;;-141.97;50.70;47534.44;4899114;29;20277;-82
2022/10/26 01:34:27;;;;;;;19.47;5.83;;;;;;;-141.97;50.30;47503.69;4897962;29;20212;-83
2022/10/26 01:37:01;;;;;;;14.87;6.07;;;;;;;-141.97;50.44;47538.28;4897753;29;20179;-82
2022/10/26 01:39:34;;;;;;;16.63;6.10;;;;;;;-141.97;50.51;47501.78;4897597;29;20695;-81
2022/10/26 01:42:02;;;;;;;20.83;6.37;;;;;;;-141.97;50.69;47534.44;4897426;29;20326;-81
2022/10/26 01:44:40;;;;;;;17.63;6.03;;;;;;;-141.97;50.68;47580.59;4897591;29;20556;-81
2022/10/26 01:47:08;;;;;;;15.93;6.47;;;;;;;-141.97;51.02;47584.44;4897395;29;20245;-81
2022/10/26 01:49:38;;;;;;;19.80;6.10;;;;;;;-141.97;50.98;47557.53;4897433;29;20182;-81
2022/10/26 01:52:04;;;;;;;15.67;6.00;;;;;;;-141.97;50.80;47530.59;4897286;29;20187;-81
2022/10/26 01:54:29;;;;;;;16.43;5.80;;;;;;;-141.97;50.87;47544.06;4897584;29;20187;-82
2022/10/26 01:57:02;;;;;;;15.80;5.77;;;;;;;-141.97;50.74;47574.81;4897288;29;20179;-82
2022/10/26 01:59:40;;;;;;;14.57;5.80;;;;;;;-141.97;50.26;47546.00;4936918;28;20273;-82
2022/10/26 02:03:07;;;;;;;17.70;5.40;;;;;;;-141.97;50.19;47551.75;4977539;28;20187;-82
2022/10/26 02:05:35;;;;;;;14.03;5.80;;;;;;;-141.97;49.91;47530.59;4897379;29;20187;-82
2022/10/26 02:08:06;;;;;;;15.70;5.57;;;;;;;-141.97;49.89;47569.06;4881357;29;20224;-82
2022/10/26 02:10:52;;;;;;;17.07;5.27;;;;;;;-141.97;49.64;47563.28;4897073;29;20238;-82
2022/10/26 02:13:25;;;;;;;15.80;5.10;;;;;;;-141.97;49.61;47565.22;4897311;29;20187;-82
2022/10/26 02:15:53;;;;;;;11.57;4.97;;;;;;;-141.97;49.25;47553.69;4897100;29;20253;-82
2022/10/26 02:18:57;;;;;;;19.27;5.10;;;;;;;-141.97;48.93;47553.69;4896890;29;20182;-82
2022/10/26 02:21:32;;;;;;;11.87;5.20;;;;;;;-141.97;48.60;47576.75;4859382;29;20264;-83
2022/10/26 02:23:58;;;;;;;14.33;5.20;;;;;;;-141.97;48.54;47567.13;4859781;29;20179;-83
2022/10/26 02:26:28;;;;;;;16.17;5.40;;;;;;;-141.97;48.49;47532.53;4859547;29;20196;-83
2022/10/26 02:28:58;;;;;;;13.83;5.40;;;;;;;-141.97;48.33;47584.44;4859625;29;20184;-83
2022/10/26 02:31:25;;;;;;;11.17;4.73;;;;;;;-141.97;48.04;47551.75;4859237;29;20232;-82
2022/10/26 02:33:53;;;;;;;13.17;5.20;;;;;;;-141.97;48.15;47544.06;4859598;29;20192;-83
2022/10/26 02:36:25;;;;;;;16.17;5.13;;;;;;;-141.97;48.18;47524.84;4859679;29;20679;-82
2022/10/26 02:38:53;;;;;;;13.97;6.40;;;;;;;-141.97;48.24;47549.84;4876949;29;20194;-82
2022/10/26 02:41:21;;;;;;;14.93;6.10;;;;;;;-141.97;48.49;47547.91;4934782;29;20256;-81
2022/10/26 02:43:52;;;;;;;15.60;5.50;;;;;;;-141.97;48.65;47617.09;4934520;29;20188;-82
2022/10/26 02:46:21;;;;;;;14.10;5.20;;;;;;;-141.97;48.63;47549.84;4918718;29;20196;-82
2022/10/26 02:48:47;;;;;;;13.80;5.10;;;;;;;-141.97;48.41;47511.38;4934478;29;20223;-81
2022/10/26 02:51:19;;;;;;;14.23;5.30;;;;;;;-141.97;48.35;47565.22;4942105;28;20268;-82
2022/10/26 02:53:58;;;;;;;16.63;5.47;;;;;;;-141.97;48.45;47557.53;4976978;28;20214;-82
2022/10/26 02:56:52;;;;;;;13.23;5.43;;;;;;;-141.97;48.79;47524.84;4994655;28;20207;-82
2022/10/26 02:59:21;;;;;;;11.67;5.27;;;;;;;-141.97;48.93;47505.63;4994238;28;20613;-83
2022/10/26 03:01:47;;;;;;;11.63;5.00;;;;;;;-141.97;48.78;47572.91;4995703;28;20180;-83
2022/10/26 03:04:12;;;;;;;12.97;5.27;;;;;;;-141.97;48.58;47582.50;5009332;28;20179;-83
2022/10/26 03:06:38;;;;;;;17.27;5.90;;;;;;;-141.97;48.53;47426.81;4994688;28;20179;-85
2022/10/26 03:09:03;;;;;;;14.50;5.73;;;;;;;-141.97;48.20;47561.38;4994628;28;20176;-83
2022/10/26 03:11:29;;;;;;;16.13;5.73;;;;;;;-141.97;48.15;47538.28;4977061;28;20195;-82
2022/10/26 03:13:54;;;;;;;17.27;6.17;;;;;;;-141.97;48.48;47534.44;4977228;28;20241;-83
2022/10/26 03:16:19;;;;;;;17.37;6.60;;;;;;;-141.97;48.61;47630.56;4994015;28;20179;-82
2022/10/26 03:18:45;;;;;;;18.30;6.00;;;;;;;-141.97;48.68;47570.97;4994214;28;20175;-84
2022/10/26 03:21:10;;;;;;;18.63;6.33;;;;;;;-141.97;48.00;47422.97;4993763;28;20635;-82
2022/10/26 03:23:36;;;;;;;14.17;5.17;;;;;;;-141.97;47.51;47355.72;4993701;28;20272;-84
2022/10/26 03:26:01;;;;;;;17.10;5.57;;;;;;;-141.97;47.62;47553.69;4992771;28;20245;-82
2022/10/26 03:28:26;;;;;;;14.67;5.63;;;;;;;-141.97;47.77;47474.88;4994181;28;20242;-83
2022/10/26 03:30:52;;;;;;;16.37;5.63;;;;;;;-141.97;47.34;47569.06;4994052;28;20223;-84
2022/10/26 03:33:17;;;;;;;17.30;6.07;;;;;;;-141.97;47.72;47707.44;4993948;28;20179;-81
2022/10/26 03:35:43;;;;;;;21.70;6.17;;;;;;;-141.97;48.09;47369.16;4994015;28;20171;-82
2022/10/26 03:38:09;;;;;;;14.27;5.60;;;;;;;-141.97;47.60;47480.63;4993503;28;20738;-83
2022/10/26 03:40:35;;;;;;;17.50;5.37;;;;;;;-141.97;47.48;47605.56;4993762;28;20182;-83
2022/10/26 03:43:01;;;;;;;15.50;5.17;;;;;;;-141.97;47.36;47507.53;4993710;28;20175;-83
2022/10/26 03:45:26;;;;;;;16.17;5.40;;;;;;;-141.97;47.54;47526.75;4976920;28;20275;-82
2022/10/26 03:47:52;;;;;;;15.97;5.30;;;;;;;-141.97;48.27;47422.97;4993672;28;20286;-84
2022/10/26 03:50:19;;;;;;;13.43;5.50;;;;;;;-141.97;48.46;47572.91;4993942;28;20179;-84
2022/10/26 03:52:48;;;;;;;13.93;5.60;;;;;;;-141.97;49.01;47480.63;4993292;28;20552;-82
2022/10/26 03:55:14;;;;;;;13.87;5.17;;;;;;;-141.97;49.07;47595.97;4993771;28;20176;-83
2022/10/26 03:57:44;;;;;;;14.40;5.27;;;;;;;-141.97;49.76;47599.81;4976668;28;20666;-82
2022/10/26 04:00:14;;;;;;;17.37;5.77;;;;;;;-141.97;50.33;47557.53;4994159;28;20557;-83
2022/10/26 04:02:39;;;;;;;15.13;5.50;;;;;;;-141.97;50.41;47565.22;4994089;28;20176;-83
2022/10/26 04:05:05;;;;;;;13.43;5.70;;;;;;;-141.97;50.21;47645.94;4994288;28;20275;-83
2022/10/26 04:07:31;;;;;;;19.20;5.40;;;;;;;-141.97;50.13;47718.97;4994214;28;20282;-84
2022/10/26 04:09:56;;;;;;;12.10;5.70;;;;;;;-141.97;50.49;47549.84;4994377;28;20176;-83
2022/10/26 04:12:21;;;;;;;13.43;5.50;;;;;;;-141.97;50.64;47569.06;4993206;28;20688;-81
2022/10/26 04:14:47;;;;;;;15.53;5.17;;;;;;;-141.97;50.98;47517.16;4995454;28;20182;-82
2022/10/26 04:17:12;;;;;;;17.10;5.80;;;;;;;-141.97;51.10;47570.97;4997519;28;20211;-82
2022/10/26 04:19:38;;;;;;;15.37;5.90;;;;;;;-141.97;51.25;47453.72;4997210;28;20258;-84
2022/10/26 04:22:03;;;;;;;16.67;5.83;;;;;;;-141.97;51.33;47398.00;4996982;28;20184;-82
2022/10/26 04:24:29;;;;;;;13.20;5.57;;;;;;;-141.97;51.16;47536.38;4998002;28;20234;-82
2022/10/26 04:26:54;;;;;;;13.73;5.90;;;;;;;-141.97;50.99;47669.00;4997466;28;20211;-80
2022/10/26 04:29:19;;;;;;;15.93;5.67;;;;;;;-141.97;50.86;47526.75;4997803;28;20183;-82
2022/10/26 04:31:45;;;;;;;15.87;6.10;;;;;;;-141.97;50.50;47532.53;5000530;28;20239;-77
2022/10/26 04:34:10;;;;;;;14.03;5.60;;;;;;;-141.97;50.50;47595.97;5015934;28;20183;-78
2022/10/26 04:36:35;;;;;;;16.37;6.10;;;;;;;-141.97;50.98;47549.84;4998502;28;20171;-81
2022/10/26 04:39:01;;;;;;;16.67;6.17;;;;;;;-141.97;51.01;47567.13;4997241;28;20178;-81
2022/10/26 04:41:26;;;;;;;22.87;10.13;;;;;;;-141.97;51.29;47570.97;4970130;28;20243;-82
2022/10/26 04:43:51;;;;;;;45.40;27.67;;;;;;;-141.97;51.46;47544.06;5008417;28;20254;-81
2022/10/26 04:46:17;;;;;;;28.20;10.27;;;;;;;-141.97;51.85;47582.50;5014510;28;20198;-82
2022/10/26 04:48:42;;;;;;;18.37;8.10;;;;;;;-141.97;51.74;47578.66;4996803;28;20215;-81
2022/10/26 04:51:08;;;;;;;17.23;5.87;;;;;;;-141.97;51.41;47599.81;4995343;28;20195;-82
2022/10/26 04:53:33;;;;;;;27.27;5.70;;;;;;;-141.97;51.66;47574.81;4995007;28;20257;-82
2022/10/26 04:56:00;;;;;;;18.47;7.17;;;;;;;-141.97;51.58;47538.28;4994906;28;20634;-82
2022/10/26 04:58:26;;;;;;;16.37;6.87;;;;;;;-141.97;51.54;47570.97;4995123;28;20290;-83
2022/10/26 05:00:52;;;;;;;17.23;6.00;;;;;;;-141.97;51.97;47570.97;4995000;28;20883;-82
2022/10/26 05:03:18;;;;;;;20.67;7.87;;;;;;;-141.97;52.26;47572.91;4976884;28;20198;-82
2022/10/26 05:05:43;;;;;;;20.83;6.17;;;;;;;-141.97;52.61;47567.13;4994695;28;20179;-82
2022/10/26 05:08:08;;;;;;;16.80;5.90;;;;;;;-141.97;52.77;47565.22;4977050;28;21043;-82
2022/10/26 05:10:34;;;;;;;20.13;7.40;;;;;;;-141.97;52.95;47590.19;4994700;28;20210;-82
2022/10/26 05:13:05;;;;;;;19.53;9.17;;;;;;;-141.97;52.69;47569.06;4994665;28;20191;-82
2022/10/26 05:15:31;;;;;;;19.73;8.17;;;;;;;-141.97;52.72;47499.84;4994892;28;20237;-82
2022/10/26 05:18:02;;;;;;;20.50;8.77;;;;;;;-141.97;52.75;47561.38;4994784;28;20195;-81
2022/10/26 05:20:30;;;;;;;19.30;9.37;;;;;;;-141.97;52.33;47536.38;4994909;28;20616;-81
2022/10/26 05:23:00;;;;;;;20.97;8.30;;;;;;;-141.97;52.72;47542.16;4994919;28;20195;-81
2022/10/26 05:25:28;;;;;;;32.53;10.43;;;;;;;-141.97;52.80;47536.38;4998133;28;20207;-82
2022/10/26 05:28:01;;;;;;;23.90;9.80;;;;;;;-141.97;52.81;47547.91;4998064;28;20215;-83
2022/10/26 05:30:28;;;;;;;20.17;8.37;;;;;;;-141.97;52.95;47584.44;4998661;28;20273;-84
2022/10/26 05:32:58;;;;;;;20.07;7.87;;;;;;;-141.97;52.92;47605.56;4994626;28;20184;-83
2022/10/26 05:35:24;;;;;;;14.60;6.83;;;;;;;-141.97;52.41;47580.59;4974788;28;20250;-83
2022/10/26 05:37:50;;;;;;;18.43;8.37;;;;;;;-141.97;52.07;47551.75;4975746;28;20212;-83
2022/10/26 05:40:16;;;;;;;20.80;8.77;;;;;;;-141.97;51.80;47584.44;4975260;28;20281;-83
2022/10/26 05:42:42;;;;;;;22.30;9.83;;;;;;;-141.97;51.71;47582.50;4965149;28;20262;-82
2022/10/26 05:45:07;;;;;;;31.37;13.83;;;;;;;-141.97;51.48;47588.28;4975322;28;20184;-82
2022/10/26 05:47:40;;;;;;;31.83;15.47;;;;;;;-141.97;51.58;47588.28;4975311;28;20212;-81
2022/10/26 05:50:08;;;;;;;31.67;13.50;;;;;;;-141.97;51.42;47540.22;4975010;28;20996;-82
2022/10/26 05:52:44;;;;;;;29.83;13.57;;;;;;;-141.97;51.47;47490.25;4986453;28;20196;-83
2022/10/26 05:55:11;;;;;;;23.80;11.63;;;;;;;-141.97;51.42;47534.44;4975451;28;20236;-81
2022/10/26 05:57:37;;;;;;;26.03;13.23;;;;;;;-141.97;51.13;47532.53;4975460;28;20674;-82
2022/10/26 06:00:14;;;;;;;23.70;10.27;;;;;;;-141.97;50.52;47553.69;4977404;28;20192;-82
2022/10/26 06:03:14;;;;;;;20.50;10.60;;;;;;;-141.97;50.07;47597.88;4972674;28;20196;-83
2022/10/26 06:05:55;;;;;;;18.10;6.80;;;;;;;-141.97;49.78;47574.81;4974171;28;20266;-83
2022/10/26 06:08:23;;;;;;;15.57;6.73;;;;;;;-141.97;49.45;47521.00;4973809;28;20219;-83
2022/10/26 06:10:50;;;;;;;19.40;5.90;;;;;;;-141.97;49.26;47538.28;4973851;28;20346;-84
2022/10/26 06:13:16;;;;;;;15.53;5.57;;;;;;;-141.97;48.85;47576.75;4983148;28;20194;-82
2022/10/26 06:16:09;;;;;;;15.30;5.80;;;;;;;-141.97;48.35;47569.06;4975410;28;20198;-83
2022/10/26 06:18:47;;;;;;;13.33;5.37;;;;;;;-141.97;47.98;47534.44;4995043;28;20282;-80
2022/10/26 06:21:37;;;;;;;16.87;6.10;;;;;;;-141.97;47.90;47569.06;4975286;28;20260;-83
2022/10/26 06:24:35;;;;;;;17.93;6.10;;;;;;;-141.97;47.52;47561.38;4992771;28;20218;-81
2022/10/26 06:27:22;;;;;;;17.80;5.63;;;;;;;-141.97;47.14;47665.16;4992290;28;20257;-84
2022/10/26 06:30:00;;;;;;;15.83;5.43;;;;;;;-141.97;46.94;47565.22;4991930;28;20321;-83
2022/10/26 06:32:26;;;;;;;15.77;5.53;;;;;;;-141.97;46.59;47542.16;4996217;28;20195;-83
2022/10/26 06:35:03;;;;;;;21.33;5.93;;;;;;;-141.97;46.27;47595.97;4993189;28;20561;-82
2022/10/26 06:37:30;;;;;;;16.90;5.30;;;;;;;-141.97;45.96;47521.00;4988020;28;20226;-84
2022/10/26 06:39:57;;;;;;;15.37;5.90;;;;;;;-141.97;45.41;47511.38;4993366;28;20204;-82
2022/10/26 06:42:23;;;;;;;10.77;5.37;;;;;;;-141.97;44.81;47582.50;4984127;28;20769;-83
2022/10/26 06:44:49;;;;;;;13.77;5.60;;;;;;;-141.97;44.47;47476.78;4993066;28;20234;-84
2022/10/26 06:47:25;;;;;;;15.13;5.60;;;;;;;-141.97;43.85;47526.75;4990555;28;20302;-84
2022/10/26 06:50:01;;;;;;;22.13;6.00;;;;;;;-141.97;43.01;47546.00;4974007;28;20223;-83
2022/10/26 06:52:50;;;;;;;15.93;5.57;;;;;;;-141.97;43.13;47469.09;4973858;28;20219;-82
2022/10/26 06:55:16;;;;;;;18.77;5.60;;;;;;;-141.97;42.68;47515.22;4972945;28;20258;-82
2022/10/26 06:57:42;;;;;;;14.73;5.10;;;;;;;-141.97;42.61;47497.94;4955389;28;20311;-81
2022/10/26 07:00:18;;;;;;;13.10;5.45;;;;;;;-141.97;42.54;47488.31;4955228;28;20850;-79
2022/10/26 07:02:44;;;;;;;18.38;6.20;;;;;;;-141.97;42.51;47536.38;4972386;28;21249;-79
2022/10/26 07:05:11;;;;;;;16.43;5.70;;;;;;;-141.97;41.67;47513.31;4972968;28;20311;-79
2022/10/26 07:07:41;;;;;;;10.80;4.80;;;;;;;-141.97;42.02;47511.38;4971221;28;20230;-79
2022/10/26 07:10:07;;;;;;;11.27;5.13;;;;;;;-141.97;41.77;47496.00;4973040;28;20191;-81
2022/10/26 07:12:33;;;;;;;12.47;5.23;;;;;;;-141.97;41.59;47496.00;4992073;28;20211;-79
2022/10/26 07:14:59;;;;;;;11.47;5.30;;;;;;;-141.97;41.08;47553.69;4991891;28;20648;-79
2022/10/26 07:17:27;;;;;;;12.50;5.13;;;;;;;-141.97;41.36;47513.31;4992074;28;20191;-80
2022/10/26 07:19:52;;;;;;;15.13;5.70;;;;;;;-141.97;41.72;47490.25;4991846;28;20332;-79
2022/10/26 07:22:18;;;;;;;11.07;5.40;;;;;;;-141.97;41.45;47547.91;4991162;28;20218;-80
2022/10/26 07:24:43;;;;;;;17.43;7.43;;;;;;;-141.97;40.90;47492.16;4991808;28;20218;-80
2022/10/26 07:27:09;;;;;;;16.90;6.70;;;;;;;-141.97;41.00;47519.06;4992122;28;20215;-78
2022/10/26 07:29:34;;;;;;;11.40;6.33;;;;;;;-141.97;40.86;47513.31;4990990;28;20226;-78
2022/10/26 07:32:00;;;;;;;12.23;5.73;;;;;;;-141.97;41.22;47507.53;4992583;28;20713;-79
2022/10/26 07:34:25;;;;;;;15.33;5.50;;;;;;;-141.97;41.36;47572.91;4993176;28;20215;-80
2022/10/26 07:36:51;;;;;;;9.93;5.13;;;;;;;-141.97;41.42;47507.53;4994958;28;20989;-78
2022/10/26 07:39:16;;;;;;;13.70;5.80;;;;;;;-141.97;40.92;47369.16;4998495;28;20686;-78
2022/10/26 07:41:43;;;;;;;13.43;5.13;;;;;;;-141.97;40.67;47501.78;4984669;28;20250;-79
2022/10/26 07:44:09;;;;;;;9.63;4.60;;;;;;;-141.97;40.66;47513.31;4976003;28;20227;-79
2022/10/26 07:46:34;;;;;;;14.83;5.20;;;;;;;-141.97;40.49;47517.16;4995524;28;20278;-79
2022/10/26 07:48:59;;;;;;;10.63;5.40;;;;;;;-141.97;40.05;47509.47;5010182;28;20195;-81
2022/10/26 07:51:25;;;;;;;8.97;4.93;;;;;;;-141.97;40.23;47538.28;5009669;28;20195;-79
2022/10/26 07:53:50;;;;;;;12.13;5.20;;;;;;;-141.97;40.14;47490.25;4995670;28;20186;-79
2022/10/26 07:56:15;;;;;;;9.73;5.10;;;;;;;-141.97;39.68;47511.38;4995502;28;20533;-80
2022/10/26 07:58:41;;;;;;;10.37;5.40;;;;;;;-141.97;38.99;47463.34;4995592;28;20197;-80
2022/10/26 08:01:09;;;;;;;11.30;4.57;;;;;;;-141.97;38.36;47496.00;4995095;28;20191;-79
2022/10/26 08:03:35;;;;;;;10.70;5.50;;;;;;;-141.97;38.40;47494.09;4995013;28;20664;-80
2022/10/26 08:06:01;;;;;;;10.80;4.87;;;;;;;-141.97;38.78;47484.47;4995549;28;20194;-79
2022/10/26 08:08:27;;;;;;;11.23;4.40;;;;;;;-141.97;38.99;47430.66;4994975;28;20229;-79
2022/10/26 08:10:52;;;;;;;10.77;4.67;;;;;;;-141.97;38.93;47488.31;4995012;28;20195;-80
2022/10/26 08:13:17;;;;;;;16.93;5.40;;;;;;;-141.97;38.15;47519.06;4995707;28;20261;-79
2022/10/26 08:15:43;;;;;;;10.07;4.97;;;;;;;-141.97;38.05;47497.94;4994899;28;20266;-80
2022/10/26 08:18:08;;;;;;;7.67;4.00;;;;;;;-141.97;38.07;47507.53;4994295;28;20191;-80
2022/10/26 08:20:34;;;;;;;12.00;4.83;;;;;;;-141.97;38.04;47515.22;4994851;28;20191;-79
2022/10/26 08:23:00;;;;;;;9.27;4.77;;;;;;;-141.97;37.14;47488.31;4994382;28;20195;-80
2022/10/26 08:25:26;;;;;;;12.47;5.10;;;;;;;-141.97;37.33;47682.47;4994184;28;20175;-79
2022/10/26 08:27:53;;;;;;;10.03;5.30;;;;;;;-141.97;36.72;47413.38;4994490;28;20301;-80
2022/10/26 08:30:18;;;;;;;11.60;5.77;;;;;;;-141.97;35.97;47530.59;4994867;28;20384;-77
2022/10/26 08:32:44;;;;;;;10.77;4.17;;;;;;;-141.97;36.11;47476.78;4994100;28;20274;-79
2022/10/26 08:35:09;;;;;;;13.43;4.73;;;;;;;-141.97;36.90;47501.78;4993765;28;20292;-80
2022/10/26 08:37:35;;;;;;;10.50;4.57;;;;;;;-141.97;36.85;47436.44;4994227;28;20194;-79
2022/10/26 08:40:01;;;;;;;7.63;4.40;;;;;;;-141.97;36.18;47480.63;4977342;28;20602;-81
2022/10/26 08:43:02;;;;;;;11.87;4.50;;;;;;;-141.97;36.01;47476.78;4985424;28;20227;-81
2022/10/26 08:45:34;;;;;;;8.33;3.93;;;;;;;-141.97;35.72;47476.78;4896961;29;20202;-78
2022/10/26 08:48:04;;;;;;;11.73;4.27;;;;;;;-141.97;35.52;47413.38;4899437;29;20230;-79
2022/10/26 08:50:29;;;;;;;11.80;4.27;;;;;;;-141.97;35.83;47471.03;4915238;29;20202;-79
2022/10/26 08:53:18;;;;;;;8.97;4.37;;;;;;;-141.97;35.69;47442.19;4899206;29;20209;-79
2022/10/26 08:55:47;;;;;;;9.47;4.20;;;;;;;-141.97;35.13;47472.94;4896641;29;20199;-78
2022/10/26 08:58:17;;;;;;;8.03;4.00;;;;;;;-141.97;35.08;47447.97;4895998;29;20704;-79
2022/10/26 09:00:47;;;;;;;8.77;4.17;;;;;;;-141.97;34.74;47394.16;4879641;29;20668;-80
2022/10/26 09:03:14;;;;;;;7.13;4.37;;;;;;;-141.97;34.45;47474.88;4895785;29;20593;-80
2022/10/26 09:05:53;;;;;;;10.80;4.43;;;;;;;-141.97;34.64;47467.19;4896084;29;20250;-80
2022/10/26 09:08:56;;;;;;;7.10;4.13;;;;;;;-141.97;33.58;47451.81;4896102;29;20218;-80
2022/10/26 09:11:40;;;;;;;11.13;4.87;;;;;;;-141.97;33.43;47484.47;4896408;29;20195;-80
2022/10/26 09:14:14;;;;;;;13.33;5.67;;;;;;;-141.97;33.05;47457.56;4895926;29;20211;-80
2022/10/26 09:17:12;;;;;;;5.60;3.40;;;;;;;-141.97;33.92;47438.34;4895769;29;21048;-80
2022/10/26 09:20:08;;;;;;;8.93;4.23;;;;;;;-141.97;33.63;47424.91;4897503;29;20241;-79
2022/10/26 09:22:48;;;;;;;11.47;4.60;;;;;;;-141.97;32.77;47467.19;4946421;28;20198;-79
2022/10/26 09:25:22;;;;;;;8.63;3.93;;;;;;;-141.97;32.45;47453.72;4971936;28;20208;-78
2022/10/26 09:27:54;;;;;;;11.60;4.63;;;;;;;-141.97;32.42;47442.19;4971079;28;20228;-77
2022/10/26 09:30:21;;;;;;;7.82;4.03;;;;;;;-141.97;32.07;47440.28;4971119;28;20230;-77
2022/10/26 09:32:58;;;;;;;12.05;6.88;;;;;;;-141.97;32.33;47430.66;4980161;28;20199;-79
2022/10/26 09:35:45;;;;;;;17.83;11.85;;;;;;;-141.97;31.69;47430.66;5108327;27;20594;-78
2022/10/26 09:38:32;;;;;;;10.02;3.50;;;;;;;-141.97;32.42;47426.81;5087252;28;20661;-78
2022/10/26 09:41:08;;;;;;;6.68;3.13;;;;;;;-141.97;31.90;47449.88;5087725;28;20226;-78
2022/10/26 09:44:00;;;;;;;5.97;2.90;;;;;;;-141.97;31.84;47409.53;5046957;28;20222;-79
2022/10/26 09:46:44;;;;;;;3.55;2.78;;;;;;;-141.97;32.31;47442.19;5047493;28;20549;-79
2022/10/26 09:49:12;;;;;;;4.28;2.60;;;;;;;-141.97;32.87;47463.34;5050521;28;21650;-78
2022/10/26 09:51:41;;;;;;;10.23;3.03;;;;;;;-141.97;32.21;47417.22;5051819;28;20205;-78
2022/10/26 09:54:16;;;;;;;5.83;2.80;;;;;;;-141.97;32.10;47407.59;5051276;28;20224;-78
2022/10/26 09:56:45;;;;;;;6.20;2.90;;;;;;;-141.97;31.85;47424.91;5051929;28;20246;-78
2022/10/26 09:59:12;;;;;;;8.40;4.00;;;;;;;-141.97;31.70;47432.59;5052217;28;20237;-78
2022/10/26 10:01:38;;;;;;;5.65;3.70;;;;;;;-141.97;31.41;47434.50;5054224;28;20183;-78
2022/10/26 10:04:10;;;;;;;4.80;2.67;;;;;;;-141.97;31.36;47388.38;5056636;28;20196;-78
2022/10/26 10:06:35;;;;;;;6.70;2.58;;;;;;;-141.97;31.53;47373.00;5057122;28;20194;-79
2022/10/26 10:09:18;;;;;;;5.05;2.65;;;;;;;-141.97;31.00;47438.34;5051014;28;20206;-79
2022/10/26 10:11:55;;;;;;;6.20;2.63;;;;;;;-141.97;31.25;47430.66;5047333;28;20213;-77
2022/10/26 10:14:50;;;;;;;7.32;2.65;;;;;;;-141.97;31.19;47398.00;5034283;28;20677;-79
2022/10/26 10:17:21;;;;;;;4.28;2.70;;;;;;;-141.97;31.09;47403.75;5029342;28;20288;-78
2022/10/26 10:19:47;;;;;;;5.50;3.00;;;;;;;-141.97;30.66;47409.53;5027791;28;20244;-78
2022/10/26 10:22:18;;;;;;;17.80;12.77;;;;;;;-141.97;30.77;47411.44;5027083;28;20188;-78
2022/10/26 10:25:02;;;;;;;12.13;6.78;;;;;;;-141.97;30.78;47405.69;5026887;28;20260;-78
2022/10/26 10:27:28;;;;;;;4.97;2.67;;;;;;;-141.97;31.61;47403.75;5027845;28;20184;-78
2022/10/26 10:29:55;;;;;;;4.65;3.10;;;;;;;-141.97;31.43;47415.28;5041756;28;20730;-78
2022/10/26 10:32:27;;;;;;;10.35;3.22;;;;;;;-141.97;31.61;47419.13;5048409;28;20218;-79
2022/10/26 10:34:56;;;;;;;5.82;2.63;;;;;;;-141.97;31.46;47422.97;5061429;28;20255;-78
2022/10/26 10:37:35;;;;;;;6.40;2.80;;;;;;;-141.97;31.32;47419.13;5065251;28;20196;-78
2022/10/26 10:40:03;;;;;;;5.28;2.63;;;;;;;-141.97;31.31;47415.28;5066864;28;20182;-78
2022/10/26 10:42:36;;;;;;;3.90;3.08;;;;;;;-141.97;31.24;47388.38;5056785;28;20248;-78
2022/10/26 10:45:02;;;;;;;6.55;3.00;;;;;;;-141.97;30.82;47407.59;5065855;28;20180;-77
2022/10/26 10:47:31;;;;;;;5.45;2.60;;;;;;;-141.97;30.51;47401.84;5055047;28;20234;-79
2022/10/26 10:50:06;;;;;;;4.60;2.63;;;;;;;-141.97;30.99;47396.06;5060939;28;20179;-77
2022/10/26 10:52:33;;;;;;;3.75;2.40;;;;;;;-141.97;30.64;47419.13;5054197;28;20215;-77
2022/10/26 10:55:14;;;;;;;5.40;2.33;;;;;;;-141.97;31.05;47407.59;5053677;28;20207;-78
2022/10/26 10:57:50;;;;;;;3.70;2.50;;;;;;;-141.97;30.63;47419.13;5052565;28;20268;-77
2022/10/26 11:00:17;;;;;;;6.05;2.95;;;;;;;-141.97;30.19;47363.41;5052516;28;20408;-79
2022/10/26 11:03:07;;;;;;;5.80;2.70;;;;;;;-141.97;30.39;47407.59;5052132;28;20753;-78
2022/10/26 11:06:05;;;;;;;4.13;2.40;;;;;;;-141.97;30.16;47386.47;5061865;28;20722;-79
2022/10/26 11:09:00;;;;;;;6.07;2.67;;;;;;;-141.97;29.94;47378.78;5052571;28;20187;-81
2022/10/26 11:11:33;;;;;;;9.48;5.32;;;;;;;-141.97;30.00;47422.97;5052599;28;20242;-79
2022/10/26 11:14:10;;;;;;;15.70;6.28;;;;;;;-141.97;30.46;47411.44;5051921;28;20204;-78
2022/10/26 11:16:39;;;;;;;5.90;2.58;;;;;;;-141.97;30.39;47365.31;5051735;28;20317;-79
2022/10/26 11:19:31;;;;;;;6.30;3.00;;;;;;;-141.97;30.05;47394.16;5051632;28;20749;-78
2022/10/26 11:21:57;;;;;;;6.40;2.40;;;;;;;-141.97;29.96;47409.53;5051762;28;20193;-78
2022/10/26 11:24:32;;;;;;;3.25;2.33;;;;;;;-141.97;29.69;47426.81;5052153;28;20195;-77
2022/10/26 11:26:58;;;;;;;5.45;2.05;;;;;;;-141.97;29.83;47378.78;5051866;28;20177;-77